createdAt,value
2022-08-07T00:01:44.686Z,100505.53
2022-08-07T00:05:00.888Z,100502.25
2022-08-07T00:08:07.747Z,100502.16
2022-08-07T00:11:19.976Z,100515.16
2022-08-07T00:14:34.962Z,100516.22
2022-08-07T00:17:38.899Z,100505.91
2022-08-07T00:20:42.150Z,100505.34
2022-08-07T00:23:45.735Z,100510.88
2022-08-07T00:27:06.015Z,100506.06
2022-08-07T00:30:10.268Z,100502.34
2022-08-07T00:33:29.383Z,100501.63
2022-08-07T00:36:35.568Z,100502.56
2022-08-07T00:39:45.062Z,100501.31
2022-08-07T00:42:57.227Z,100507.50
2022-08-07T00:46:02.392Z,100504.44
2022-08-07T00:49:05.664Z,100496.12
2022-08-07T00:52:10.616Z,100498.03
2022-08-07T00:55:17.511Z,100508.22
2022-08-07T00:58:28.374Z,100500.88
2022-08-07T01:01:44.261Z,100495.56
2022-08-07T01:04:47.741Z,100495.81
2022-08-07T01:07:51.319Z,100502.09
2022-08-07T01:10:56.564Z,100495.47
2022-08-07T01:14:01.559Z,100498.03
2022-08-07T01:17:07.112Z,100496.75
2022-08-07T01:20:16.658Z,100498.75
2022-08-07T01:23:20.828Z,100498.75
2022-08-07T01:26:37.708Z,100493.25
2022-08-07T01:29:40.659Z,100493.00
2022-08-07T01:32:43.924Z,100495.22
2022-08-07T01:35:53.368Z,100485.13
2022-08-07T01:38:59.159Z,100488.16
2022-08-07T01:42:37.031Z,100486.06
2022-08-07T01:45:37.127Z,100489.38
2022-08-07T01:48:47.774Z,100486.69
2022-08-07T01:52:01.843Z,100487.72
2022-08-07T01:55:09.735Z,100494.50
2022-08-07T01:58:33.211Z,100486.56
2022-08-07T02:01:59.956Z,100496.38
2022-08-07T02:05:16.065Z,100492.88
2022-08-07T02:08:40.389Z,100503.00
2022-08-07T02:12:04.541Z,100501.09
2022-08-07T02:15:11.264Z,100495.94
2022-08-07T02:18:16.026Z,100500.28
2022-08-07T02:21:21.866Z,100503.09
2022-08-07T02:24:25.899Z,100503.91
2022-08-07T02:27:34.793Z,100507.31
2022-08-07T02:30:39.483Z,100511.06
2022-08-07T02:34:02.761Z,100506.72
2022-08-07T02:37:08.905Z,100517.66
2022-08-07T02:40:30.964Z,100518.22
2022-08-07T02:43:40.952Z,100524.44
2022-08-07T02:46:52.762Z,100526.88
2022-08-07T02:49:59.672Z,100524.44
2022-08-07T02:53:10.985Z,100531.13
2022-08-07T02:56:21.782Z,100528.87
2022-08-07T02:59:27.441Z,100528.63
2022-08-07T03:02:32.606Z,100525.91
2022-08-07T03:05:37.940Z,100524.47
2022-08-07T03:08:41.962Z,100522.13
2022-08-07T03:11:51.766Z,100524.91
2022-08-07T03:14:56.471Z,100517.78
2022-08-07T03:18:00.020Z,100527.88
2022-08-07T03:21:08.614Z,100519.91
2022-08-07T03:24:18.462Z,100527.41
2022-08-07T03:27:30.803Z,100537.47
2022-08-07T03:30:46.291Z,100533.94
2022-08-07T03:34:01.339Z,100532.84
2022-08-07T03:37:12.219Z,100540.25
2022-08-07T03:40:18.635Z,100532.50
2022-08-07T03:43:26.737Z,100535.13
2022-08-07T03:46:37.531Z,100537.41
2022-08-07T03:50:01.113Z,100544.53
2022-08-07T03:53:07.060Z,100549.59
2022-08-07T03:56:13.529Z,100549.41
2022-08-07T03:59:18.799Z,100545.91
2022-08-07T04:02:23.400Z,100558.34
2022-08-07T04:05:39.414Z,100560.56
2022-08-07T04:08:45.959Z,100557.47
2022-08-07T04:12:25.454Z,100561.53
2022-08-07T04:15:16.031Z,100571.06
2022-08-07T04:18:56.589Z,100574.34
2022-08-07T04:21:58.851Z,100577.44
2022-08-07T04:25:08.921Z,100576.59
2022-08-07T04:28:15.939Z,100578.59
2022-08-07T04:31:39.114Z,100583.63
2022-08-07T04:34:50.472Z,100583.59
2022-08-07T04:38:03.385Z,100591.59
2022-08-07T04:41:18.196Z,100589.66
2022-08-07T04:44:22.967Z,100588.41
2022-08-07T04:48:03.789Z,100599.81
2022-08-07T04:51:38.772Z,100596.44
2022-08-07T04:55:15.162Z,100593.84
2022-08-07T04:59:18.569Z,100601.59
2022-08-07T05:02:48.837Z,100602.31
2022-08-07T05:06:20.067Z,100601.94
2022-08-07T05:09:45.429Z,100599.37
2022-08-07T05:14:52.110Z,100597.59
2022-08-07T05:16:44.073Z,100613.81
2022-08-07T05:19:51.598Z,100619.31
2022-08-07T05:22:58.349Z,100627.22
2022-08-07T05:26:13.491Z,100629.31
2022-08-07T05:29:22.389Z,100625.22
2022-08-07T05:32:26.453Z,100625.19
2022-08-07T05:35:33.590Z,100626.50
2022-08-07T05:39:00.420Z,100628.25
2022-08-07T05:42:12.269Z,100628.50
2022-08-07T05:45:28.200Z,100630.47
2022-08-07T05:48:59.290Z,100630.94
2022-08-07T05:52:04.679Z,100632.97
2022-08-07T05:55:10.820Z,100639.41
2022-08-07T05:58:16.722Z,100639.91
2022-08-07T06:01:21.827Z,100647.28
2022-08-07T06:04:29.978Z,100638.69
2022-08-07T06:08:13.536Z,100643.91
2022-08-07T06:10:59.112Z,100638.44
2022-08-07T06:14:12.998Z,100636.13
2022-08-07T06:17:30.507Z,100632.19
2022-08-07T06:20:50.635Z,100638.56
2022-08-07T06:24:45.968Z,100634.66
2022-08-07T06:28:00.702Z,100646.41
2022-08-07T06:30:51.844Z,100647.16
2022-08-07T06:33:57.198Z,100650.09
2022-08-07T06:37:02.662Z,100656.56
2022-08-07T06:40:16.130Z,100662.16
2022-08-07T06:43:26.746Z,100656.88
2022-08-07T06:46:31.261Z,100666.19
2022-08-07T06:49:51.153Z,100670.44
2022-08-07T06:52:58.038Z,100670.41
2022-08-07T06:56:04.041Z,100676.91
2022-08-07T07:00:14.775Z,100681.59
2022-08-07T07:02:53.336Z,100680.16
2022-08-07T07:06:04.277Z,100677.97
2022-08-07T07:09:44.688Z,100676.09
2022-08-07T07:12:53.510Z,100681.47
2022-08-07T07:16:01.037Z,100683.69
2022-08-07T07:19:56.262Z,100671.28
2022-08-07T07:22:36.345Z,100678.22
2022-08-07T07:26:34.728Z,100685.88
2022-08-07T07:29:56.427Z,100675.06
2022-08-07T07:32:49.267Z,100674.81
2022-08-07T07:36:05.535Z,100676.59
2022-08-07T07:39:17.591Z,100669.56
2022-08-07T07:42:25.850Z,100672.22
2022-08-07T07:46:36.973Z,100672.47
2022-08-07T07:49:09.334Z,100659.66
2022-08-07T07:52:26.402Z,100664.63
2022-08-07T07:55:37.758Z,100669.00
2022-08-07T07:58:50.654Z,100668.47
2022-08-07T08:02:01.738Z,100667.28
2022-08-07T08:05:14.395Z,100675.66
2022-08-07T08:08:35.470Z,100669.69
2022-08-07T08:11:59.319Z,100670.13
2022-08-07T08:15:06.894Z,100671.53
2022-08-07T08:18:18.024Z,100668.97
2022-08-07T08:22:03.002Z,100680.63
2022-08-07T08:25:42.398Z,100672.44
2022-08-07T08:28:48.929Z,100677.34
2022-08-07T08:31:58.769Z,100672.62
2022-08-07T08:35:28.829Z,100678.66
2022-08-07T08:38:40.523Z,100670.31
2022-08-07T08:41:57.690Z,100678.94
2022-08-07T08:45:58.410Z,100688.06
2022-08-07T08:48:59.643Z,100677.81
2022-08-07T08:52:19.736Z,100675.03
2022-08-07T08:55:54.585Z,100681.50
2022-08-07T08:59:41.733Z,100666.94
2022-08-07T09:03:07.691Z,100677.28
2022-08-07T09:06:35.724Z,100683.47
2022-08-07T09:09:47.567Z,100680.50
2022-08-07T09:12:59.707Z,100668.31
2022-08-07T09:16:29.987Z,100676.69
2022-08-07T09:20:35.691Z,100671.72
2022-08-07T09:24:32.969Z,100674.78
2022-08-07T09:26:59.264Z,100672.94
2022-08-07T09:30:10.112Z,100658.72
2022-08-07T09:33:40.944Z,100674.94
2022-08-07T09:37:12.112Z,100660.56
2022-08-07T09:40:35.457Z,100659.84
2022-08-07T09:44:20.011Z,100658.13
2022-08-07T09:47:59.590Z,100660.19
2022-08-07T09:51:05.408Z,100656.47
2022-08-07T09:54:47.914Z,100648.19
2022-08-07T09:57:53.476Z,100654.06
2022-08-07T10:01:52.374Z,100640.37
2022-08-07T10:05:01.388Z,100637.34
2022-08-07T10:08:35.847Z,100633.97
2022-08-07T10:12:04.168Z,100629.22
2022-08-07T10:15:44.497Z,100624.09
2022-08-07T10:19:23.237Z,100614.72
2022-08-07T10:22:36.719Z,100615.09
2022-08-07T10:26:17.662Z,100613.91
2022-08-07T10:29:45.518Z,100616.16
2022-08-07T10:34:14.583Z,100607.44
2022-08-07T10:37:48.333Z,100605.44
2022-08-07T10:41:09.466Z,100598.38
2022-08-07T10:44:37.607Z,100591.34
2022-08-07T10:48:02.726Z,100595.63
2022-08-07T10:51:39.584Z,100589.22
2022-08-07T10:55:01.512Z,100592.50
2022-08-07T10:58:36.568Z,100582.47
2022-08-07T11:02:27.577Z,100582.78
2022-08-07T11:05:50.972Z,100581.00
2022-08-07T11:08:57.664Z,100573.97
2022-08-07T11:12:31.801Z,100581.47
2022-08-07T11:15:39.626Z,100572.47
2022-08-07T11:18:51.810Z,100568.66
2022-08-07T11:22:19.192Z,100563.56
2022-08-07T11:25:47.807Z,100562.22
2022-08-07T11:29:13.237Z,100562.13
2022-08-07T11:32:34.359Z,100563.16
2022-08-07T11:36:00.761Z,100548.69
2022-08-07T11:39:23.216Z,100556.41
2022-08-07T11:42:30.401Z,100552.34
2022-08-07T11:45:54.130Z,100546.75
2022-08-07T11:49:27.807Z,100550.56
2022-08-07T11:52:56.173Z,100543.00
2022-08-07T11:56:33.246Z,100541.47
2022-08-07T12:00:11.996Z,100542.28
2022-08-07T12:03:51.397Z,100533.66
2022-08-07T12:07:08.000Z,100526.62
2022-08-07T12:10:37.033Z,100539.53
2022-08-07T12:14:01.140Z,100526.66
2022-08-07T12:17:10.260Z,100524.34
2022-08-07T12:20:33.539Z,100521.78
2022-08-07T12:24:37.283Z,100518.91
2022-08-07T12:28:08.496Z,100523.19
2022-08-07T12:31:22.647Z,100511.53
2022-08-07T12:34:29.893Z,100500.97
2022-08-07T12:38:10.017Z,100492.66
2022-08-07T12:40:59.389Z,100492.25
2022-08-07T12:44:12.898Z,100494.34
2022-08-07T12:47:50.239Z,100494.94
2022-08-07T12:51:12.943Z,100495.56
2022-08-07T12:55:09.485Z,100487.78
2022-08-07T12:58:17.211Z,100481.84
2022-08-07T13:01:32.382Z,100472.09
2022-08-07T13:04:44.161Z,100483.31
2022-08-07T13:08:18.854Z,100476.34
2022-08-07T13:12:02.742Z,100477.78
2022-08-07T13:15:58.979Z,100464.44
2022-08-07T13:19:18.180Z,100474.69
2022-08-07T13:22:34.260Z,100467.63
2022-08-07T13:25:50.921Z,100457.16
2022-08-07T13:29:06.283Z,100464.50
2022-08-07T13:32:32.647Z,100462.69
2022-08-07T13:36:00.888Z,100469.41
2022-08-07T13:40:33.923Z,100462.09
2022-08-07T13:43:02.530Z,100459.38
2022-08-07T13:46:23.917Z,100458.00
2022-08-07T13:50:44.064Z,100453.72
2022-08-07T13:52:59.343Z,100442.12
2022-08-07T13:56:03.714Z,100440.53
2022-08-07T13:59:21.641Z,100433.97
2022-08-07T14:02:33.373Z,100426.41
2022-08-07T14:05:45.085Z,100415.22
2022-08-07T14:08:54.559Z,100420.84
2022-08-07T14:12:07.222Z,100425.94
2022-08-07T14:15:37.190Z,100420.19
2022-08-07T14:18:49.925Z,100412.72
2022-08-07T14:22:12.462Z,100414.44
2022-08-07T14:25:29.418Z,100406.91
2022-08-07T14:28:59.127Z,100414.22
2022-08-07T14:32:08.044Z,100402.38
2022-08-07T14:35:15.974Z,100403.97
2022-08-07T14:38:40.661Z,100394.38
2022-08-07T14:42:20.546Z,100392.38
2022-08-07T14:45:21.997Z,100386.13
2022-08-07T14:52:03.820Z,100381.06
2022-08-07T14:55:12.482Z,100371.09
2022-08-07T14:58:28.998Z,100376.56
2022-08-07T15:01:42.783Z,100372.53
2022-08-07T15:04:54.981Z,100364.78
2022-08-07T15:07:59.105Z,100361.09
2022-08-07T15:13:11.449Z,100370.50
2022-08-07T15:14:56.085Z,100371.38
2022-08-07T15:18:05.934Z,100364.34
2022-08-07T15:21:44.732Z,100352.00
2022-08-07T15:25:13.714Z,100353.97
2022-08-07T15:35:06.837Z,100351.66
2022-08-07T15:38:30.426Z,100339.69
2022-08-07T15:49:13.181Z,100342.34
2022-08-07T15:52:17.071Z,100332.69
2022-08-07T15:55:24.223Z,100334.44
2022-08-07T15:58:52.297Z,100331.75
2022-08-07T16:02:01.814Z,100331.09
2022-08-07T16:05:23.140Z,100329.84
2022-08-07T16:08:40.549Z,100335.31
2022-08-07T16:12:12.215Z,100336.41
2022-08-07T16:15:55.466Z,100333.81
2022-08-07T16:19:03.563Z,100326.91
2022-08-07T16:22:37.925Z,100337.50
2022-08-07T16:26:02.795Z,100332.06
2022-08-07T16:30:10.206Z,100337.78
2022-08-07T16:34:01.770Z,100339.34
2022-08-07T16:37:02.367Z,100334.50
2022-08-07T16:40:56.854Z,100331.97
2022-08-07T16:45:15.501Z,100345.53
2022-08-07T16:49:10.417Z,100335.97
2022-08-07T16:52:51.930Z,100334.28
2022-08-07T16:56:04.620Z,100338.22
2022-08-07T16:59:15.167Z,100335.66
2022-08-07T17:02:52.267Z,100331.00
2022-08-07T17:06:30.363Z,100330.47
2022-08-07T17:10:07.382Z,100342.00
2022-08-07T17:13:22.740Z,100340.81
2022-08-07T17:16:33.300Z,100339.69
2022-08-07T17:20:02.458Z,100347.09
2022-08-07T17:23:15.041Z,100338.16
2022-08-07T17:26:50.109Z,100336.25
2022-08-07T17:30:15.340Z,100339.97
2022-08-07T17:34:08.278Z,100335.91
2022-08-07T17:37:14.430Z,100333.22
2022-08-07T17:40:39.966Z,100336.84
2022-08-07T17:44:03.209Z,100346.47
2022-08-07T17:47:17.116Z,100350.34
2022-08-07T17:51:04.703Z,100357.81
2022-08-07T17:54:11.508Z,100355.37
2022-08-07T17:57:20.455Z,100364.19
2022-08-07T18:00:34.260Z,100365.53
2022-08-07T18:04:07.220Z,100365.38
2022-08-07T18:07:28.469Z,100366.47
2022-08-07T18:12:07.606Z,100378.47
2022-08-07T18:14:54.766Z,100386.37
2022-08-07T18:18:46.614Z,100391.41
2022-08-07T18:22:06.238Z,100397.16
2022-08-07T18:25:39.150Z,100401.25
2022-08-07T18:30:08.244Z,100404.28
2022-08-07T18:33:11.029Z,100401.84
2022-08-07T18:36:58.934Z,100411.41
2022-08-07T18:40:43.850Z,100406.78
2022-08-07T18:44:21.029Z,100416.59
2022-08-07T18:47:45.166Z,100418.53
2022-08-07T18:50:59.707Z,100424.03
2022-08-07T18:54:31.306Z,100431.66
2022-08-07T18:58:03.202Z,100431.41
2022-08-07T19:02:17.576Z,100435.50
2022-08-07T19:05:09.895Z,100436.87
2022-08-07T19:08:58.838Z,100439.12
2022-08-07T19:12:07.845Z,100447.59
2022-08-07T19:16:02.227Z,100439.97
2022-08-07T19:18:51.533Z,100445.12
2022-08-07T19:22:18.655Z,100455.19
2022-08-07T19:26:22.968Z,100463.06
2022-08-07T19:30:59.993Z,100468.13
2022-08-07T19:32:42.266Z,100464.00
2022-08-07T19:35:53.940Z,100477.59
2022-08-07T19:39:00.275Z,100482.75
2022-08-07T19:42:22.536Z,100488.94
2022-08-07T19:46:00.965Z,100484.53
2022-08-07T19:48:59.531Z,100494.75
2022-08-07T19:52:04.358Z,100499.34
2022-08-07T19:55:11.009Z,100508.53
2022-08-07T19:58:16.032Z,100502.03
2022-08-07T20:01:22.898Z,100501.81
2022-08-07T20:04:48.911Z,100512.09
2022-08-07T20:07:57.585Z,100517.72
2022-08-07T20:11:10.640Z,100514.31
2022-08-07T20:14:23.149Z,100507.91
2022-08-07T20:17:38.698Z,100519.50
2022-08-07T20:20:41.964Z,100521.91
2022-08-07T20:23:53.539Z,100529.09
2022-08-07T20:27:01.911Z,100533.53
2022-08-07T20:30:11.009Z,100536.72
2022-08-07T20:33:36.762Z,100540.06
2022-08-07T20:36:41.217Z,100542.72
2022-08-07T20:40:02.426Z,100544.06
2022-08-07T20:43:14.692Z,100545.72
2022-08-07T20:46:34.617Z,100544.22
2022-08-07T20:49:59.424Z,100536.22
2022-08-07T20:53:05.728Z,100544.34
2022-08-07T20:56:10.484Z,100538.47
2022-08-07T21:00:04.714Z,100537.50
2022-08-07T21:02:58.123Z,100533.97
2022-08-07T21:06:22.353Z,100543.91
2022-08-07T21:09:51.840Z,100550.22
2022-08-07T21:12:59.552Z,100549.72
2022-08-07T21:16:05.232Z,100555.37
2022-08-07T21:19:14.037Z,100555.78
2022-08-07T21:22:19.482Z,100549.47
2022-08-07T21:25:56.512Z,100560.97
2022-08-07T21:29:15.658Z,100569.06
2022-08-07T21:32:48.622Z,100573.19
2022-08-07T21:36:11.974Z,100575.41
2022-08-07T21:39:47.181Z,100573.66
2022-08-07T21:43:22.927Z,100584.12
2022-08-07T21:46:33.042Z,100583.41
2022-08-07T21:50:08.241Z,100577.16
2022-08-07T21:53:53.061Z,100581.94
2022-08-07T21:57:30.943Z,100579.81
2022-08-07T22:00:42.538Z,100582.53
2022-08-07T22:04:00.532Z,100579.72
2022-08-07T22:07:14.604Z,100581.41
2022-08-07T22:10:24.658Z,100584.25
2022-08-07T22:13:50.288Z,100599.69
2022-08-07T22:16:58.327Z,100594.09
2022-08-07T22:20:22.949Z,100586.34
2022-08-07T22:23:40.288Z,100590.03
2022-08-07T22:27:04.391Z,100590.25
2022-08-07T22:30:16.201Z,100591.59
2022-08-07T22:33:53.160Z,100592.75
2022-08-07T22:37:13.995Z,100589.50
2022-08-07T22:40:24.915Z,100591.12
2022-08-07T22:43:34.089Z,100601.12
2022-08-07T22:47:09.421Z,100597.00
2022-08-07T22:50:46.188Z,100601.25
2022-08-07T22:54:15.025Z,100604.41
2022-08-07T22:57:54.882Z,100602.44
2022-08-07T23:01:12.867Z,100603.13
2022-08-07T23:04:58.204Z,100615.81
2022-08-07T23:08:46.123Z,100611.56
2022-08-07T23:12:06.156Z,100618.28
2022-08-07T23:16:05.608Z,100626.38
2022-08-07T23:19:17.150Z,100626.50
2022-08-07T23:22:48.628Z,100621.09
2022-08-07T23:25:56.555Z,100621.31
2022-08-07T23:30:35.660Z,100628.72
2022-08-07T23:34:34.909Z,100620.16
2022-08-07T23:37:25.033Z,100623.34
2022-08-07T23:40:53.153Z,100631.53
2022-08-07T23:44:05.419Z,100618.25
2022-08-07T23:47:46.806Z,100613.44
2022-08-07T23:51:03.842Z,100613.31
2022-08-07T23:55:08.435Z,100613.31
2022-08-07T23:58:21.204Z,100630.06
